createdAt,value
2023-02-27T00:00:19.178Z,1.80
2023-02-27T00:03:05.637Z,1.87
2023-02-27T00:05:32.278Z,2.00
2023-02-27T00:07:58.757Z,2.03
2023-02-27T00:10:24.887Z,2.20
2023-02-27T00:12:51.566Z,1.73
2023-02-27T00:15:19.549Z,1.80
2023-02-27T00:17:46.092Z,2.03
2023-02-27T00:20:16.526Z,2.50
2023-02-27T00:22:43.997Z,2.20
2023-02-27T00:25:11.727Z,2.10
2023-02-27T00:27:38.699Z,1.80
2023-02-27T00:30:06.972Z,2.30
2023-02-27T00:32:35.839Z,2.13
2023-02-27T00:35:07.100Z,2.10
2023-02-27T00:37:33.915Z,2.27
2023-02-27T00:40:00.614Z,2.60
2023-02-27T00:42:27.864Z,2.33
2023-02-27T00:44:54.028Z,1.90
2023-02-27T00:47:20.426Z,2.40
2023-02-27T00:49:46.631Z,2.40
2023-02-27T00:52:13.027Z,2.47
2023-02-27T00:54:39.225Z,4.93
2023-02-27T00:57:06.296Z,6.97
2023-02-27T00:59:32.556Z,8.17
2023-02-27T01:01:59.023Z,6.10
2023-02-27T01:04:27.544Z,5.50
2023-02-27T01:06:54.235Z,4.23
2023-02-27T01:09:20.580Z,3.60
2023-02-27T01:11:47.067Z,2.77
2023-02-27T01:14:14.219Z,2.77
2023-02-27T01:16:40.831Z,3.30
2023-02-27T01:19:07.693Z,2.77
2023-02-27T01:21:34.234Z,2.23
2023-02-27T01:24:00.949Z,2.20
2023-02-27T01:26:27.395Z,2.40
2023-02-27T01:28:53.715Z,2.60
2023-02-27T01:31:20.302Z,2.30
2023-02-27T01:33:48.262Z,2.90
2023-02-27T01:36:14.725Z,3.50
2023-02-27T01:38:41.572Z,3.30
2023-02-27T01:41:08.223Z,3.07
2023-02-27T01:44:00.640Z,3.00
2023-02-27T01:46:29.164Z,3.00
2023-02-27T01:49:05.605Z,3.30
2023-02-27T01:51:36.505Z,2.60
2023-02-27T01:54:05.371Z,2.70
2023-02-27T01:56:32.086Z,2.47
2023-02-27T01:59:07.238Z,1.83
2023-02-27T02:01:34.813Z,1.73
2023-02-27T02:04:23.752Z,1.90
2023-02-27T02:06:57.885Z,1.83
2023-02-27T02:09:25.405Z,2.07
2023-02-27T02:11:53.743Z,1.83
2023-02-27T02:14:19.904Z,1.60
2023-02-27T02:17:11.690Z,1.50
2023-02-27T02:20:23.373Z,2.10
2023-02-27T02:23:04.897Z,1.70
2023-02-27T02:25:58.816Z,1.73
2023-02-27T02:29:02.422Z,1.80
2023-02-27T02:32:01.682Z,1.73
2023-02-27T02:34:56.226Z,1.70
2023-02-27T02:37:50.302Z,1.87
2023-02-27T02:40:26.646Z,2.70
2023-02-27T02:43:07.715Z,2.90
2023-02-27T02:45:53.984Z,2.93
2023-02-27T02:48:28.542Z,3.00
2023-02-27T02:51:07.441Z,2.80
2023-02-27T02:54:15.565Z,3.37
2023-02-27T02:57:16.092Z,5.93
2023-02-27T03:00:06.445Z,4.67
2023-02-27T03:02:39.166Z,4.10
2023-02-27T03:05:09.302Z,3.27
2023-02-27T03:07:44.651Z,3.20
2023-02-27T03:10:17.137Z,3.00
2023-02-27T03:12:50.737Z,4.23
2023-02-27T03:15:20.993Z,3.50
2023-02-27T03:18:20.053Z,4.07
2023-02-27T03:20:57.075Z,2.87
2023-02-27T03:23:34.100Z,2.63
2023-02-27T03:26:01.504Z,2.43
2023-02-27T03:28:33.401Z,2.50
2023-02-27T03:31:09.870Z,3.00
2023-02-27T03:33:39.882Z,5.10
2023-02-27T03:36:37.061Z,3.83
2023-02-27T03:39:13.381Z,2.63
2023-02-27T03:41:54.388Z,2.87
2023-02-27T03:44:57.324Z,2.70
2023-02-27T03:47:23.834Z,4.23
2023-02-27T03:49:50.762Z,5.73
2023-02-27T03:52:20.163Z,4.80
2023-02-27T03:54:54.026Z,5.57
2023-02-27T03:57:20.416Z,4.00
2023-02-27T03:59:46.877Z,3.13
2023-02-27T04:02:14.386Z,2.87
2023-02-27T04:04:40.884Z,2.60
2023-02-27T04:07:42.739Z,2.30
2023-02-27T04:10:09.535Z,2.40
2023-02-27T04:13:06.754Z,2.50
2023-02-27T04:15:52.724Z,2.27
2023-02-27T04:18:34.063Z,2.40
2023-02-27T04:21:10.035Z,2.30
2023-02-27T04:23:51.235Z,2.00
2023-02-27T04:26:31.404Z,2.27
2023-02-27T04:29:01.171Z,2.53
2023-02-27T04:31:38.774Z,2.40
2023-02-27T04:34:10.492Z,2.60
2023-02-27T04:37:06.695Z,2.50
2023-02-27T04:40:00.521Z,2.70
2023-02-27T04:42:31.370Z,2.60
2023-02-27T04:45:01.910Z,2.57
2023-02-27T04:47:34.046Z,2.67
2023-02-27T04:50:18.883Z,2.20
2023-02-27T04:52:52.120Z,2.63
2023-02-27T04:55:26.600Z,2.90
2023-02-27T04:57:59.655Z,2.80
2023-02-27T05:00:27.982Z,2.60
2023-02-27T05:03:00.476Z,3.17
2023-02-27T05:05:30.820Z,2.63
2023-02-27T05:08:12.451Z,2.90
2023-02-27T05:11:08.508Z,2.50
2023-02-27T05:13:50.141Z,2.90
2023-02-27T05:16:27.533Z,2.77
2023-02-27T05:18:54.902Z,3.00
2023-02-27T05:21:24.017Z,2.77
2023-02-27T05:24:26.623Z,2.83
2023-02-27T05:27:20.748Z,2.63
2023-02-27T05:30:03.574Z,2.60
2023-02-27T05:32:35.885Z,2.90
2023-02-27T05:35:12.762Z,3.17
2023-02-27T05:38:11.278Z,3.50
2023-02-27T05:40:46.781Z,2.93
2023-02-27T05:43:21.946Z,3.17
2023-02-27T05:45:51.857Z,3.00
2023-02-27T05:48:27.087Z,3.50
2023-02-27T05:50:55.433Z,3.17
2023-02-27T05:53:27.694Z,3.43
2023-02-27T05:55:58.155Z,3.10
2023-02-27T05:58:39.319Z,3.00
2023-02-27T06:01:08.724Z,2.93
2023-02-27T06:03:36.551Z,2.77
2023-02-27T06:06:07.050Z,2.20
2023-02-27T06:08:34.315Z,2.73
2023-02-27T06:11:01.565Z,2.97
2023-02-27T06:13:28.537Z,3.00
2023-02-27T06:15:55.751Z,2.90
2023-02-27T06:18:22.336Z,3.13
2023-02-27T06:20:49.583Z,3.10
2023-02-27T06:23:16.934Z,3.40
2023-02-27T06:25:43.697Z,3.33
2023-02-27T06:28:10.113Z,3.17
2023-02-27T06:30:37.410Z,3.27
2023-02-27T06:33:04.746Z,3.93
2023-02-27T06:35:31.841Z,3.50
2023-02-27T06:37:58.374Z,6.37
2023-02-27T06:40:24.981Z,9.20
2023-02-27T06:42:51.301Z,11.80
2023-02-27T06:45:17.909Z,7.97
2023-02-27T06:47:44.180Z,5.90
2023-02-27T06:50:12.844Z,14.07
2023-02-27T06:52:40.278Z,8.77
2023-02-27T06:55:08.470Z,6.53
2023-02-27T06:57:35.398Z,6.33
2023-02-27T07:00:05.132Z,5.73
2023-02-27T07:02:31.351Z,6.93
2023-02-27T07:04:58.118Z,9.43
2023-02-27T07:07:35.353Z,8.37
2023-02-27T07:10:11.360Z,8.07
2023-02-27T07:12:39.648Z,6.97
2023-02-27T07:15:08.113Z,6.13
2023-02-27T07:17:34.638Z,5.50
2023-02-27T07:20:01.438Z,5.77
2023-02-27T07:22:27.848Z,3.40
2023-02-27T07:24:54.549Z,9.67
2023-02-27T07:27:20.963Z,10.37
2023-02-27T07:29:52.220Z,7.37
2023-02-27T07:32:18.951Z,7.37
2023-02-27T07:34:45.582Z,8.77
2023-02-27T07:37:12.314Z,5.23
2023-02-27T07:39:39.883Z,3.80
2023-02-27T07:42:06.087Z,4.07
2023-02-27T07:44:33.613Z,5.63
2023-02-27T07:46:59.786Z,4.47
2023-02-27T07:49:26.227Z,4.77
2023-02-27T07:51:52.542Z,5.57
2023-02-27T07:54:19.205Z,8.83
2023-02-27T07:56:45.362Z,17.77
2023-02-27T07:59:11.975Z,8.57
2023-02-27T08:01:38.456Z,6.83
2023-02-27T08:04:05.173Z,7.70
2023-02-27T08:06:31.398Z,6.13
2023-02-27T08:08:58.179Z,5.20
2023-02-27T08:11:24.730Z,6.37
2023-02-27T08:14:06.680Z,9.90
2023-02-27T08:16:33.469Z,12.37
2023-02-27T08:19:00.659Z,8.67
2023-02-27T08:21:29.174Z,10.30
2023-02-27T08:23:56.178Z,16.70
2023-02-27T08:26:23.146Z,9.97
2023-02-27T08:28:50.448Z,8.40
2023-02-27T08:31:17.017Z,11.13
2023-02-27T08:33:43.609Z,10.30
2023-02-27T08:36:10.204Z,19.63
2023-02-27T08:38:36.898Z,10.57
2023-02-27T08:41:03.598Z,8.47
2023-02-27T08:43:30.195Z,9.03
2023-02-27T08:45:56.462Z,10.07
2023-02-27T08:48:24.178Z,9.67
2023-02-27T08:50:51.078Z,7.67
2023-02-27T08:53:18.049Z,8.90
2023-02-27T08:55:48.646Z,8.93
2023-02-27T08:58:17.051Z,8.40
2023-02-27T09:00:45.174Z,10.30
2023-02-27T09:03:12.469Z,7.90
2023-02-27T09:05:41.533Z,7.40
2023-02-27T09:08:08.968Z,7.30
2023-02-27T09:10:35.807Z,7.37
2023-02-27T09:13:02.280Z,7.77
2023-02-27T09:15:29.442Z,6.43
2023-02-27T09:17:59.451Z,6.60
2023-02-27T09:20:25.772Z,8.33
2023-02-27T09:22:52.253Z,7.03
2023-02-27T09:25:18.392Z,6.43
2023-02-27T09:27:45.046Z,7.07
2023-02-27T09:30:12.084Z,8.30
2023-02-27T09:32:38.680Z,8.13
2023-02-27T09:35:05.253Z,7.27
2023-02-27T09:37:31.876Z,5.63
2023-02-27T09:39:58.030Z,5.07
2023-02-27T09:42:32.190Z,7.07
2023-02-27T09:45:06.230Z,7.70
2023-02-27T09:47:42.178Z,5.73
2023-02-27T09:50:38.754Z,6.27
2023-02-27T09:53:11.895Z,5.80
2023-02-27T09:55:40.822Z,4.40
2023-02-27T09:58:10.266Z,3.90
2023-02-27T10:00:48.368Z,2.80
2023-02-27T10:03:42.616Z,2.70
2023-02-27T10:06:14.706Z,3.50
2023-02-27T10:08:50.052Z,3.20
2023-02-27T10:11:25.280Z,4.20
2023-02-27T10:14:08.935Z,7.40
2023-02-27T10:16:36.385Z,7.13
2023-02-27T10:19:10.469Z,3.07
2023-02-27T10:21:44.456Z,8.20
2023-02-27T10:24:32.355Z,7.87
2023-02-27T10:27:01.992Z,8.07
2023-02-27T10:29:35.838Z,14.73
2023-02-27T10:32:08.845Z,3.47
2023-02-27T10:34:39.404Z,3.00
2023-02-27T10:37:08.299Z,3.43
2023-02-27T10:39:55.876Z,2.30
2023-02-27T10:42:24.915Z,1.67
2023-02-27T10:44:53.060Z,3.00
2023-02-27T10:47:24.698Z,2.17
2023-02-27T10:49:53.677Z,2.60
2023-02-27T10:52:20.422Z,2.43
2023-02-27T10:54:48.253Z,1.50
2023-02-27T10:57:28.107Z,1.77
2023-02-27T11:00:17.577Z,3.30
2023-02-27T11:02:49.483Z,1.90
2023-02-27T11:05:28.757Z,2.63
2023-02-27T11:08:20.332Z,1.40
2023-02-27T11:11:08.885Z,1.73
2023-02-27T11:13:41.951Z,1.90
2023-02-27T11:16:11.024Z,1.90
2023-02-27T11:18:42.842Z,1.67
2023-02-27T11:21:18.924Z,1.50
2023-02-27T11:23:56.406Z,2.10
2023-02-27T11:26:32.585Z,3.03
2023-02-27T11:29:16.125Z,2.60
2023-02-27T11:32:14.473Z,2.63
2023-02-27T11:34:49.170Z,2.67
2023-02-27T11:37:27.667Z,4.00
2023-02-27T11:40:15.133Z,3.63
2023-02-27T11:43:01.219Z,3.20
2023-02-27T11:46:04.484Z,1.90
2023-02-27T11:48:20.505Z,2.40
2023-02-27T11:50:53.983Z,2.63
2023-02-27T11:53:56.398Z,2.10
2023-02-27T11:56:29.518Z,2.63
2023-02-27T11:58:59.311Z,11.43
2023-02-27T12:01:39.237Z,4.07
2023-02-27T12:04:12.985Z,8.60
2023-02-27T12:07:03.170Z,4.20
2023-02-27T12:09:45.314Z,7.87
2023-02-27T12:12:20.830Z,1.67
2023-02-27T12:15:04.468Z,2.47
2023-02-27T12:17:52.771Z,1.00
2023-02-27T12:20:22.337Z,1.80
2023-02-27T12:22:52.230Z,1.27
2023-02-27T12:25:31.154Z,1.30
2023-02-27T12:28:05.857Z,1.30
2023-02-27T12:30:44.183Z,3.70
2023-02-27T12:33:25.734Z,1.83
2023-02-27T12:35:59.238Z,1.70
2023-02-27T12:38:25.620Z,1.57
2023-02-27T12:41:30.360Z,5.77
2023-02-27T12:44:41.047Z,3.27
2023-02-27T12:47:32.352Z,2.13
2023-02-27T12:50:06.092Z,2.60
2023-02-27T12:53:00.385Z,2.37
2023-02-27T12:55:30.260Z,2.40
2023-02-27T12:58:21.575Z,2.77
2023-02-27T13:00:55.367Z,3.40
2023-02-27T13:03:33.937Z,3.23
2023-02-27T13:06:04.311Z,4.97
2023-02-27T13:09:04.864Z,3.33
2023-02-27T13:12:12.903Z,2.47
2023-02-27T13:14:54.461Z,2.10
2023-02-27T13:17:29.071Z,2.10
2023-02-27T13:20:20.500Z,2.40
2023-02-27T13:22:49.897Z,1.80
2023-02-27T13:25:17.988Z,2.30
2023-02-27T13:27:53.380Z,1.70
2023-02-27T13:30:26.731Z,1.70
2023-02-27T13:32:59.228Z,1.80
2023-02-27T13:35:52.432Z,7.33
2023-02-27T13:38:42.917Z,3.20
2023-02-27T13:41:24.779Z,3.10
2023-02-27T13:43:53.572Z,11.73
2023-02-27T13:46:20.123Z,8.80
2023-02-27T13:48:51.290Z,8.87
2023-02-27T13:51:36.774Z,11.60
2023-02-27T13:54:07.280Z,10.63
2023-02-27T13:56:35.036Z,4.13
2023-02-27T13:59:19.952Z,2.93
2023-02-27T14:01:59.012Z,2.63
2023-02-27T14:04:28.796Z,3.57
2023-02-27T14:07:01.551Z,3.53
2023-02-27T14:09:36.413Z,4.47
2023-02-27T14:12:05.969Z,3.37
2023-02-27T14:14:41.147Z,2.60
2023-02-27T14:17:11.308Z,3.23
2023-02-27T14:19:40.686Z,2.23
2023-02-27T14:22:10.897Z,9.30
2023-02-27T14:24:49.668Z,13.47
2023-02-27T14:27:42.176Z,14.83
2023-02-27T14:30:26.660Z,29.00
2023-02-27T14:33:13.560Z,13.60
2023-02-27T14:35:45.656Z,12.47
2023-02-27T14:38:18.706Z,8.20
2023-02-27T14:41:07.624Z,12.13
2023-02-27T14:43:39.208Z,14.63
2023-02-27T14:46:22.902Z,13.97
2023-02-27T14:48:58.403Z,15.53
2023-02-27T14:51:26.547Z,23.03
2023-02-27T14:54:13.548Z,14.67
2023-02-27T14:56:41.341Z,13.30
2023-02-27T14:59:42.623Z,33.83
2023-02-27T15:02:22.795Z,18.40
2023-02-27T15:05:13.005Z,25.80
2023-02-27T15:07:39.733Z,11.63
2023-02-27T15:10:10.234Z,13.17
2023-02-27T15:12:38.564Z,25.20
2023-02-27T15:15:07.123Z,18.87
2023-02-27T15:17:39.567Z,14.77
2023-02-27T15:20:28.578Z,20.60
2023-02-27T15:22:57.136Z,10.17
2023-02-27T15:25:37.767Z,7.67
2023-02-27T15:28:23.697Z,10.33
2023-02-27T15:30:52.104Z,5.10
2023-02-27T15:33:26.900Z,6.87
2023-02-27T15:35:53.861Z,10.73
2023-02-27T15:38:33.138Z,10.77
2023-02-27T15:41:01.757Z,8.60
2023-02-27T15:43:29.867Z,9.73
2023-02-27T15:45:57.621Z,31.53
2023-02-27T15:48:24.935Z,16.03
2023-02-27T15:50:56.154Z,14.67
2023-02-27T15:53:29.083Z,13.43
2023-02-27T15:55:59.965Z,13.33
2023-02-27T15:58:30.252Z,11.50
2023-02-27T16:01:01.145Z,8.87
2023-02-27T16:03:42.135Z,7.63
2023-02-27T16:06:16.380Z,8.57
2023-02-27T16:09:18.903Z,11.67
2023-02-27T16:11:45.998Z,14.17
2023-02-27T16:14:37.088Z,19.30
2023-02-27T16:17:21.090Z,17.80
2023-02-27T16:19:47.632Z,19.10
2023-02-27T16:22:19.805Z,20.43
2023-02-27T16:24:47.868Z,13.90
2023-02-27T16:27:23.070Z,21.20
2023-02-27T16:29:50.833Z,41.03
2023-02-27T16:32:27.323Z,74.93
2023-02-27T16:35:14.861Z,37.77
2023-02-27T16:37:46.108Z,23.73
2023-02-27T16:40:14.719Z,13.50
2023-02-27T16:42:43.169Z,9.17
2023-02-27T16:45:23.484Z,8.40
2023-02-27T16:47:53.175Z,4.70
2023-02-27T16:50:31.133Z,7.50
2023-02-27T16:52:57.942Z,7.03
2023-02-27T16:55:25.633Z,5.90
2023-02-27T16:57:52.650Z,4.90
2023-02-27T17:00:22.003Z,5.30
2023-02-27T17:02:53.230Z,4.53
2023-02-27T17:05:20.247Z,4.20
2023-02-27T17:07:48.139Z,4.37
2023-02-27T17:10:19.758Z,4.10
2023-02-27T17:12:47.269Z,3.73
2023-02-27T17:15:14.568Z,3.93
2023-02-27T17:18:09.522Z,4.50
2023-02-27T17:20:40.393Z,21.80
2023-02-27T17:23:09.964Z,31.70
2023-02-27T17:25:36.714Z,28.43
2023-02-27T17:28:03.755Z,31.10
2023-02-27T17:30:30.212Z,35.93
2023-02-27T17:32:59.689Z,43.83
2023-02-27T17:35:26.834Z,31.70
2023-02-27T17:37:54.007Z,30.37
2023-02-27T17:40:20.462Z,28.43
2023-02-27T17:42:47.497Z,31.97
2023-02-27T17:45:14.312Z,22.63
2023-02-27T17:47:42.368Z,16.63
2023-02-27T17:50:09.483Z,9.37
2023-02-27T17:52:37.115Z,9.73
2023-02-27T17:55:07.829Z,8.07
2023-02-27T17:57:36.441Z,5.70
2023-02-27T18:00:05.398Z,6.57
2023-02-27T18:02:32.329Z,9.70
2023-02-27T18:04:58.849Z,9.53
2023-02-27T18:07:25.516Z,12.87
2023-02-27T18:09:52.067Z,11.77
2023-02-27T18:12:18.956Z,14.43
2023-02-27T18:14:45.426Z,10.07
2023-02-27T18:17:12.496Z,8.37
2023-02-27T18:19:41.087Z,9.17
2023-02-27T18:22:09.236Z,12.43
2023-02-27T18:24:37.329Z,12.80
2023-02-27T18:27:04.394Z,12.67
2023-02-27T18:29:30.801Z,13.20
2023-02-27T18:31:57.810Z,13.90
2023-02-27T18:34:24.777Z,12.17
2023-02-27T18:36:51.538Z,12.20
2023-02-27T18:39:20.884Z,11.20
2023-02-27T18:41:47.775Z,10.33
2023-02-27T18:44:14.571Z,10.27
2023-02-27T18:46:41.631Z,9.60
2023-02-27T18:49:08.358Z,6.67
2023-02-27T18:51:35.776Z,5.50
2023-02-27T18:54:04.056Z,4.83
2023-02-27T18:56:32.278Z,4.63
2023-02-27T18:59:04.357Z,4.13
2023-02-27T19:01:35.034Z,4.57
2023-02-27T19:04:04.162Z,4.13
2023-02-27T19:06:42.552Z,4.50
2023-02-27T19:09:17.171Z,4.97
2023-02-27T19:11:45.416Z,5.27
2023-02-27T19:14:14.070Z,4.63
2023-02-27T19:16:42.019Z,6.30
2023-02-27T19:19:10.009Z,6.13
2023-02-27T19:21:36.978Z,8.13
2023-02-27T19:24:03.818Z,10.87
2023-02-27T19:26:56.096Z,13.50
2023-02-27T19:32:35.304Z,10.77
2023-02-27T19:35:05.984Z,12.27
2023-02-27T19:37:33.075Z,12.40
2023-02-27T19:49:36.518Z,23.47
2023-02-27T19:52:03.974Z,57.83
2023-02-27T19:54:30.962Z,52.33
2023-02-27T19:57:25.847Z,34.03
2023-02-27T20:00:00.882Z,33.17
2023-02-27T20:02:28.632Z,30.10
2023-02-27T20:04:55.747Z,27.23
2023-02-27T20:07:28.232Z,24.10
2023-02-27T20:09:56.182Z,24.80
2023-02-27T20:12:25.108Z,25.57
2023-02-27T20:14:52.124Z,26.63
2023-02-27T20:17:19.442Z,29.17
2023-02-27T20:19:47.145Z,30.90
2023-02-27T20:22:15.374Z,33.03
2023-02-27T20:24:44.372Z,33.93
2023-02-27T20:27:11.990Z,19.63
2023-02-27T20:29:40.003Z,23.83
2023-02-27T20:32:08.360Z,27.90
2023-02-27T20:34:35.534Z,25.47
2023-02-27T20:37:03.132Z,27.87
2023-02-27T20:39:30.302Z,31.23
2023-02-27T20:41:58.157Z,34.23
2023-02-27T20:44:25.668Z,31.07
2023-02-27T20:46:53.510Z,36.00
2023-02-27T20:49:22.273Z,33.57
2023-02-27T20:51:49.765Z,30.77
2023-02-27T20:54:19.609Z,30.83
2023-02-27T20:56:51.206Z,47.07
2023-02-27T20:59:22.898Z,49.80
2023-02-27T21:01:53.368Z,55.23
2023-02-27T21:04:23.711Z,55.97
2023-02-27T21:06:51.680Z,47.10
2023-02-27T21:09:18.677Z,52.67
2023-02-27T21:11:45.958Z,55.80
2023-02-27T21:14:13.972Z,53.20
2023-02-27T21:16:41.165Z,50.67
2023-02-27T21:19:08.195Z,58.40
2023-02-27T21:21:36.313Z,93.47
2023-02-27T21:24:03.745Z,64.23
2023-02-27T21:26:35.509Z,51.77
2023-02-27T21:29:06.946Z,48.83
2023-02-27T21:31:35.679Z,44.73
2023-02-27T21:34:06.314Z,42.57
2023-02-27T21:36:37.021Z,38.63
2023-02-27T21:39:06.476Z,37.30
2023-02-27T21:41:34.864Z,37.70
2023-02-27T21:44:04.784Z,33.67
2023-02-27T21:46:33.186Z,35.73
2023-02-27T21:49:00.953Z,33.93
2023-02-27T21:51:39.304Z,38.50
2023-02-27T21:54:08.951Z,31.83
2023-02-27T21:56:36.630Z,31.13
2023-02-27T21:59:06.668Z,29.57
2023-02-27T22:01:35.255Z,30.90
2023-02-27T22:04:02.606Z,26.30
2023-02-27T22:06:32.301Z,25.70
2023-02-27T22:09:04.010Z,24.83
2023-02-27T22:11:33.712Z,23.03
2023-02-27T22:14:01.092Z,21.57
2023-02-27T22:16:28.154Z,21.67
2023-02-27T22:18:54.598Z,23.10
2023-02-27T22:21:24.424Z,21.73
2023-02-27T22:23:51.128Z,22.43
2023-02-27T22:26:21.055Z,20.60
2023-02-27T22:28:47.185Z,21.57
2023-02-27T22:31:17.706Z,19.30
2023-02-27T22:33:47.183Z,18.43
2023-02-27T22:36:20.266Z,19.37
2023-02-27T22:38:47.489Z,17.57
2023-02-27T22:41:39.633Z,18.30
2023-02-27T22:44:08.789Z,17.20
2023-02-27T22:46:38.359Z,14.13
2023-02-27T22:49:12.685Z,14.77
2023-02-27T22:51:39.317Z,12.27
2023-02-27T22:54:07.218Z,12.43
2023-02-27T22:56:36.387Z,12.87
2023-02-27T22:59:04.444Z,11.03
2023-02-27T23:01:34.130Z,11.57
2023-02-27T23:04:07.076Z,10.93
2023-02-27T23:06:36.800Z,11.20
2023-02-27T23:09:05.072Z,10.87
2023-02-27T23:11:32.143Z,10.77
2023-02-27T23:13:59.265Z,10.47
2023-02-27T23:16:25.803Z,10.40
2023-02-27T23:18:54.993Z,11.80
2023-02-27T23:21:41.136Z,10.50
2023-02-27T23:24:10.061Z,12.47
2023-02-27T23:26:42.481Z,19.07
2023-02-27T23:29:09.493Z,15.50
2023-02-27T23:31:36.974Z,14.73
2023-02-27T23:34:07.264Z,16.80
2023-02-27T23:36:35.164Z,14.47
2023-02-27T23:39:02.716Z,13.73
2023-02-27T23:41:29.897Z,13.83
2023-02-27T23:44:14.755Z,14.10
2023-02-27T23:46:41.238Z,14.20
2023-02-27T23:49:08.105Z,13.40
2023-02-27T23:51:35.066Z,14.07
2023-02-27T23:54:01.449Z,13.13
2023-02-27T23:56:29.691Z,14.07
2023-02-27T23:59:01.719Z,14.67
